Aérodrome :
LOGIN :

S'inscrire | Disclaimer

   EN    FR    IT 

 










Légende :    VFR   VFR Marginal   IFR   IFR Intensif   IFR Très Intensif
Visi : 
Plafond : 
>= 8 km
>= 3000ft
5 à 8 km
1000 à 3000 ft
1500m à 5 km
500 à 1000 ft
800 à 1500m
200 à 500 ft
< 800m
< 200 ft
Symboles :   Orages  Brouillard  Fortes neiges  Fortes précipitations  Vent > 20 kt
SIGMETs :   Divers  Orages  Givrage  Turbulence  Onde Orograph.  Cendres Volcan.






- Altitude de l'aérodrome : 80 ft
- Code IATA : LPL


EGGP - Liverpool John Lennon

DERNIER METAR :
  • 020650Z 27014KT 9999 VCSH BKN010 08/06 Q1015

METARs EXPIRÉS :
  • 020620Z 29013KT 9999 VCSH FEW009 BKN012 09/08 Q1015
  • 020550Z 29015KT 9999 VCSH SCT010 BKN036 09/08 Q1015
  • 020520Z AUTO 28011KT 9999 BKN009/// OVC048/// 08/07 Q1016
  • 020450Z AUTO 28011KT 9999 FEW011/// BKN038/// OVC045/// 08/07 Q1016
  • 020420Z AUTO 28012KT 9999 BKN008/// OVC012/// 08/07 Q1016

TAF TAF EGGP
Valide du 02 à 06h jusqu'au 03 à 06h UTC


020459Z 0206/0306 28009KT 9999 BKN018
TEMPO 0206/0211 BKN014
PROB30
TEMPO 0206/0210 BKN006
BECMG 0208/0211 28018G28KT
PROB30
TEMPO 0209/0217 5000 SHRA
BECMG 0217/0220 32014KT
PROB30
TEMPO 0217/0306 8000 -SHRA
ATIS : +44 151 907 2000 (option 5 or ext 5150)
Météo : +44 871 750 5150



MET'MAP, la Météo Aéronautique d'un coup d'oeil ! - Copyright ORBIFLY Décembre 2007 - Disclaimer

ORBIFLY MET'MAP TEAM :

Programmation & Développement : Alexandra Zaïnal
Sur une idée originale de : Baudouin d'Aumeries
Assistance à la programmation : Marc-Olivier Méhu
Soutien technique & logistique : Manuel Goepfert

Contact : metmap@orbifly.com




SOURCES & CREDITS :

   NOAA